Time;durP1;ratioP1;P1;durP2;ratioP2;P2;SDS_P1;SDS_P2;PMS_P1;PMS_P2;Temp;Humidity;BMP_temperature;BMP_pressure;BME280_temperature;BME280_humidity;BME280_pressure;Samples;Min_cycle;Max_cycle;Signal;HPM_P1;HPM_P2
2022/12/19 00:01:49;;;;;;;6.30;2.98;;;;;;;3.86;68.41;102815.83;1951251;73;21013;-57
2022/12/19 00:04:19;;;;;;;8.40;3.85;;;;;;;3.86;68.20;102820.17;1963063;73;21444;-56
2022/12/19 00:06:48;;;;;;;8.50;3.50;;;;;;;3.80;68.28;102814.80;1954549;73;21025;-57
2022/12/19 00:09:17;;;;;;;8.43;3.42;;;;;;;3.81;68.33;102830.48;1944718;73;21138;-57
2022/12/19 00:11:47;;;;;;;7.75;3.50;;;;;;;3.84;68.18;102822.73;1942635;73;21044;-57
2022/12/19 00:14:17;;;;;;;9.03;3.27;;;;;;;3.83;68.16;102818.36;1968143;72;21071;-57
2022/12/19 00:16:46;;;;;;;8.83;2.90;;;;;;;3.81;68.24;102810.94;1973623;73;21174;-56
2022/12/19 00:19:15;;;;;;;6.55;3.22;;;;;;;3.80;68.01;102803.08;1944601;73;21123;-57
2022/12/19 00:21:44;;;;;;;6.80;2.77;;;;;;;3.78;68.03;102806.98;1939361;74;21112;-56
2022/12/19 00:24:13;;;;;;;6.55;3.50;;;;;;;3.77;68.04;102808.24;1973101;73;21005;-57
2022/12/19 00:26:42;;;;;;;6.65;2.70;;;;;;;3.75;68.05;102812.11;1973903;72;21042;-57
2022/12/19 00:29:11;;;;;;;8.25;3.27;;;;;;;3.69;68.01;102804.17;1953230;73;21122;-57
2022/12/19 00:31:40;;;;;;;9.53;3.95;;;;;;;3.70;68.02;102808.95;1939940;73;21026;-57
2022/12/19 00:34:10;;;;;;;6.03;3.00;;;;;;;3.70;67.97;102817.63;1939435;74;21065;-56
2022/12/19 00:36:40;;;;;;;6.67;3.00;;;;;;;3.68;68.01;102814.12;1939603;74;21119;-57
2022/12/19 00:39:10;;;;;;;8.65;3.27;;;;;;;3.65;68.11;102821.45;1949051;73;21192;-55
2022/12/19 00:41:40;;;;;;;7.20;2.90;;;;;;;3.62;68.21;102823.11;1951054;73;21026;-57
2022/12/19 00:44:11;;;;;;;8.10;3.10;;;;;;;3.63;68.14;102823.55;1954673;73;21455;-56
2022/12/19 00:46:40;;;;;;;6.78;2.95;;;;;;;3.62;68.22;102820.50;1939379;74;21022;-56
2022/12/19 00:49:10;;;;;;;5.28;2.60;;;;;;;3.64;68.24;102824.02;1939472;74;21116;-56
2022/12/19 00:51:38;;;;;;;4.42;2.37;;;;;;;3.67;68.11;102825.37;1939427;73;21459;-55
2022/12/19 00:54:10;;;;;;;9.43;3.40;;;;;;;3.65;68.01;102817.95;1946133;73;21028;-57
2022/12/19 00:56:39;;;;;;;7.83;3.00;;;;;;;3.60;67.94;102811.77;1959629;71;21582;-58
2022/12/19 00:59:09;;;;;;;6.62;2.80;;;;;;;3.57;68.05;102828.62;1952714;73;21608;-57
2022/12/19 01:01:40;;;;;;;6.20;2.87;;;;;;;3.57;67.92;102822.98;1969912;73;21073;-57
2022/12/19 01:04:11;;;;;;;7.92;3.52;;;;;;;3.53;67.73;102828.10;1949229;73;21130;-55
2022/12/19 01:06:42;;;;;;;12.45;4.05;;;;;;;3.50;67.89;102826.28;1948775;73;21641;-58
2022/12/19 01:09:12;;;;;;;8.90;3.27;;;;;;;3.47;67.74;102812.78;1945495;73;21088;-56
2022/12/19 01:14:29;;;;;;;6.87;3.10;;;;;;;3.45;67.64;102823.59;1973967;73;21061;-57
2022/12/19 01:16:58;;;;;;;10.20;3.67;;;;;;;3.38;67.42;102829.48;1973681;72;21029;-59
2022/12/19 01:19:27;;;;;;;9.98;4.10;;;;;;;3.31;67.60;102836.69;1955941;71;21009;-56
2022/12/19 01:21:57;;;;;;;10.85;4.67;;;;;;;3.28;67.58;102839.20;1951061;73;21077;-56
2022/12/19 01:24:25;;;;;;;10.88;3.80;;;;;;;3.25;67.56;102845.23;1942691;73;21210;-58
2022/12/19 01:26:54;;;;;;;10.30;3.65;;;;;;;3.28;67.58;102849.63;1957320;73;21021;-57
2022/12/19 01:29:23;;;;;;;10.72;3.98;;;;;;;3.27;67.58;102846.15;1941882;73;21009;-57
2022/12/19 01:31:51;;;;;;;6.80;3.25;;;;;;;3.24;67.67;102855.17;1939343;73;21033;-58
2022/12/19 01:34:20;;;;;;;8.33;4.03;;;;;;;3.26;67.69;102847.41;1949480;73;21029;-58
2022/12/19 01:36:49;;;;;;;7.90;3.20;;;;;;;3.27;67.57;102853.09;1952200;73;21014;-60
2022/12/19 01:39:17;;;;;;;8.63;3.52;;;;;;;3.22;67.49;102850.78;1961875;73;21169;-59
2022/12/19 01:41:46;;;;;;;9.40;4.05;;;;;;;3.21;67.60;102854.21;1951878;73;21058;-60
2022/12/19 01:44:15;;;;;;;10.10;3.67;;;;;;;3.20;67.45;102851.16;1953719;73;21027;-55
2022/12/19 01:46:50;;;;;;;9.23;3.80;;;;;;;3.15;67.36;102851.03;1939364;74;21088;-56
2022/12/19 01:49:35;;;;;;;7.83;3.83;;;;;;;3.15;67.40;102848.86;1940076;73;21040;-56
2022/12/19 01:52:06;;;;;;;9.65;4.10;;;;;;;3.12;67.21;102843.56;1963178;73;21022;-58
2022/12/19 01:54:38;;;;;;;7.65;3.00;;;;;;;3.06;67.41;102852.09;1973870;72;21041;-56
2022/12/19 01:57:10;;;;;;;10.15;4.00;;;;;;;2.99;67.40;102851.08;1973897;73;21041;-58
2022/12/19 01:59:44;;;;;;;9.03;3.65;;;;;;;3.03;67.36;102871.13;1973938;73;21045;-57
2022/12/19 02:02:31;;;;;;;8.00;3.58;;;;;;;3.09;67.16;102869.98;1960470;73;21083;-56
2022/12/19 02:05:01;;;;;;;10.40;4.58;;;;;;;3.05;67.20;102854.26;1943405;73;21083;-58
2022/12/19 02:07:31;;;;;;;12.23;4.42;;;;;;;3.04;67.14;102853.39;1939302;74;21202;-57
2022/12/19 02:10:00;;;;;;;9.43;4.22;;;;;;;3.05;67.18;102852.53;1939382;74;21118;-58
2022/12/19 02:12:33;;;;;;;11.57;5.08;;;;;;;3.01;67.09;102854.59;1938750;73;21550;-58
2022/12/19 02:15:04;;;;;;;13.80;4.75;;;;;;;2.98;67.08;102858.84;1949787;73;21116;-57
2022/12/19 02:17:54;;;;;;;9.13;4.10;;;;;;;2.96;67.21;102837.98;1953886;73;21013;-54
2022/12/19 02:20:59;;;;;;;9.15;4.30;;;;;;;2.95;67.16;102838.83;1955429;73;21079;-54
2022/12/19 02:23:38;;;;;;;13.05;4.50;;;;;;;2.91;67.19;102853.87;1945511;73;21143;-57
2022/12/19 02:26:21;;;;;;;11.48;4.30;;;;;;;2.90;67.30;102862.55;1920150;73;21152;-52
2022/12/19 02:29:10;;;;;;;7.72;3.52;;;;;;;2.90;67.26;102866.02;1948589;73;21057;-54
2022/12/19 02:31:42;;;;;;;11.18;4.37;;;;;;;2.89;67.29;102872.48;1954081;73;21029;-51
2022/12/19 02:34:14;;;;;;;11.53;4.80;;;;;;;2.89;67.34;102859.47;1947635;72;21182;-56
2022/12/19 02:36:50;;;;;;;11.83;4.53;;;;;;;2.85;67.25;102856.33;1971876;72;21178;-55
2022/12/19 02:39:34;;;;;;;9.85;4.60;;;;;;;2.87;67.30;102853.34;1960180;72;21142;-57
2022/12/19 02:42:05;;;;;;;10.20;3.75;;;;;;;2.87;67.31;102855.95;1943204;72;21044;-55
2022/12/19 02:44:37;;;;;;;9.60;4.10;;;;;;;2.95;67.16;102853.14;1962859;72;21154;-55
2022/12/19 02:47:08;;;;;;;11.75;5.12;;;;;;;3.00;66.96;102832.00;1965459;72;21111;-57
2022/12/19 02:49:38;;;;;;;9.68;4.75;;;;;;;3.02;66.86;102833.34;1963776;72;21128;-58
2022/12/19 02:52:12;;;;;;;13.18;5.40;;;;;;;2.96;66.94;102839.28;1970889;72;21151;-56
2022/12/19 02:54:41;;;;;;;9.10;4.40;;;;;;;2.89;67.17;102843.42;1958421;72;21648;-56
2022/12/19 02:57:19;;;;;;;10.58;4.92;;;;;;;2.88;67.26;102852.09;1966556;72;21625;-57
2022/12/19 03:00:00;;;;;;;13.75;5.40;;;;;;;2.89;67.25;102853.84;1962719;72;21173;-57
2022/12/19 03:02:56;;;;;;;15.88;5.03;;;;;;;2.89;67.27;102854.27;1965630;72;21005;-59
2022/12/19 03:05:43;;;;;;;15.58;5.08;;;;;;;2.96;67.20;102856.63;1975333;71;21548;-56
2022/12/19 03:08:14;;;;;;;17.17;6.37;;;;;;;2.98;67.07;102864.92;1962946;72;21551;-57
2022/12/19 03:10:47;;;;;;;18.30;7.15;;;;;;;2.99;66.94;102868.00;1968716;72;21155;-61
2022/12/19 03:13:28;;;;;;;15.45;6.67;;;;;;;2.97;66.93;102873.59;1961029;72;21115;-61
2022/12/19 03:15:59;;;;;;;14.87;6.00;;;;;;;2.95;66.91;102883.08;1965004;72;21079;-62
2022/12/19 03:18:28;;;;;;;15.50;5.50;;;;;;;2.89;66.98;102885.48;1962710;72;21079;-59
2022/12/19 03:21:08;;;;;;;16.55;7.35;;;;;;;2.84;67.06;102895.79;1973842;72;21106;-60
2022/12/19 03:23:39;;;;;;;17.12;6.55;;;;;;;2.79;67.19;102887.40;1979685;72;21060;-61
2022/12/19 03:26:10;;;;;;;16.05;6.67;;;;;;;2.70;67.29;102884.11;1962623;72;21041;-61
2022/12/19 03:28:45;;;;;;;16.50;7.33;;;;;;;2.60;67.32;102898.59;1979037;72;21213;-57
2022/12/19 03:31:17;;;;;;;9.40;4.80;;;;;;;2.50;67.49;102901.75;1971599;72;21099;-60
2022/12/19 03:33:48;;;;;;;15.68;5.80;;;;;;;2.43;67.19;102901.97;1990586;72;21037;-57
2022/12/19 03:36:20;;;;;;;17.50;6.05;;;;;;;2.38;67.40;102907.87;1964244;72;21468;-57
2022/12/19 03:38:50;;;;;;;16.67;6.62;;;;;;;2.33;67.58;102900.39;1944020;72;21104;-57
2022/12/19 03:43:07;;;;;;;21.75;6.85;;;;;;;2.28;67.70;102893.31;1941479;73;21571;-57
2022/12/19 03:43:50;;;;;;;21.12;7.90;;;;;;;2.31;67.71;102896.01;1960819;73;21103;-56
2022/12/19 03:46:21;;;;;;;21.90;7.58;;;;;;;2.30;67.67;102899.86;1968740;71;21134;-57
2022/12/19 03:48:53;;;;;;;14.95;7.00;;;;;;;2.26;67.64;102900.18;1970746;73;21018;-59
2022/12/19 03:51:43;;;;;;;15.80;6.12;;;;;;;2.22;67.75;102898.77;1947583;73;21101;-60
2022/12/19 03:54:26;;;;;;;10.98;4.60;;;;;;;2.16;67.92;102892.96;1941115;73;21460;-59
2022/12/19 03:56:56;;;;;;;;;;;;;;;2.16;67.95;102905.95;1941958;73;21088;-58
2022/12/19 03:59:52;;;;;;;18.32;7.42;;;;;;;2.19;67.82;102902.55;1939260;74;20112;-57
2022/12/19 04:02:23;;;;;;;11.90;5.42;;;;;;;2.13;67.70;102913.65;1951378;73;21029;-57
2022/12/19 04:04:58;;;;;;;11.93;4.53;;;;;;;2.05;67.76;102907.34;1963572;72;21022;-59
2022/12/19 04:07:27;;;;;;;15.83;7.15;;;;;;;2.02;67.61;102913.73;1952267;73;21143;-59
2022/12/19 04:10:00;;;;;;;13.80;6.05;;;;;;;1.99;67.70;102917.53;1939440;73;21570;-57
2022/12/19 04:12:34;;;;;;;14.75;6.50;;;;;;;1.98;67.64;102917.95;1944366;73;21037;-59
2022/12/19 04:15:05;;;;;;;16.85;6.08;;;;;;;1.97;67.63;102913.58;1939645;73;21488;-59
2022/12/19 04:17:45;;;;;;;18.02;6.53;;;;;;;2.00;67.58;102918.01;1946781;73;21213;-59
2022/12/19 04:20:20;;;;;;;14.43;6.05;;;;;;;2.01;67.47;102934.05;1958766;73;21122;-60
2022/12/19 04:22:57;;;;;;;11.18;5.10;;;;;;;1.99;67.48;102946.11;1963219;73;21504;-61
2022/12/19 04:25:32;;;;;;;9.80;4.45;;;;;;;2.00;67.44;102950.48;1956092;73;21456;-59
2022/12/19 04:28:03;;;;;;;13.32;5.22;;;;;;;1.94;67.24;102948.58;1973385;72;21091;-59
2022/12/19 04:30:33;;;;;;;16.12;6.50;;;;;;;1.88;67.30;102954.47;1948659;72;21108;-60
2022/12/19 04:33:02;;;;;;;18.45;6.90;;;;;;;1.89;67.42;102959.23;1953345;72;21487;-59
2022/12/19 04:35:31;;;;;;;19.00;6.10;;;;;;;1.89;67.43;102969.20;1943482;72;21150;-59
2022/12/19 04:38:00;;;;;;;18.20;8.45;;;;;;;1.90;67.37;102957.08;1973117;72;21045;-55
2022/12/19 04:40:35;;;;;;;12.73;5.70;;;;;;;1.87;67.46;102952.69;1977974;72;21100;-54
2022/12/19 04:43:06;;;;;;;14.15;5.42;;;;;;;1.82;67.49;102959.44;1958579;72;21041;-57
2022/12/19 04:45:34;;;;;;;14.10;6.47;;;;;;;1.82;67.47;102965.93;1946515;72;21017;-56
2022/12/19 04:48:03;;;;;;;9.40;4.42;;;;;;;1.85;67.38;102975.14;1945819;74;21140;-56
2022/12/19 04:50:33;;;;;;;19.50;5.67;;;;;;;1.85;67.37;102977.73;1947922;72;21060;-56
2022/12/19 04:53:02;;;;;;;11.73;5.17;;;;;;;1.86;67.37;102973.41;1946320;72;21009;-58
2022/12/19 04:55:31;;;;;;;15.40;5.92;;;;;;;1.89;67.34;102977.42;1946157;72;21013;-58
2022/12/19 04:58:05;;;;;;;14.40;6.45;;;;;;;1.84;67.27;102975.95;1974944;72;21045;-55
2022/12/19 05:00:34;;;;;;;14.63;4.78;;;;;;;1.88;67.28;102986.94;1949929;72;21075;-56
2022/12/19 05:03:03;;;;;;;13.62;5.67;;;;;;;1.88;67.09;102977.84;1963840;71;21108;-57
2022/12/19 05:05:31;;;;;;;16.67;7.33;;;;;;;1.77;67.04;102970.12;1975980;72;21471;-48
2022/12/19 05:08:00;;;;;;;12.45;6.28;;;;;;;1.75;67.34;102975.65;1952785;72;21033;-46
2022/12/19 05:10:29;;;;;;;14.90;4.85;;;;;;;1.72;67.00;102989.86;1968691;72;21080;-50
2022/12/19 05:12:57;;;;;;;11.55;5.30;;;;;;;1.65;67.29;103009.95;1980441;72;21024;-49
2022/12/19 05:15:26;;;;;;;12.25;6.58;;;;;;;1.72;67.21;103005.44;1945988;74;21054;-47
2022/12/19 05:17:54;;;;;;;15.70;6.60;;;;;;;1.76;67.14;103006.43;1953250;71;21094;-55
2022/12/19 05:20:23;;;;;;;16.97;6.22;;;;;;;1.70;67.14;103006.68;1951684;72;21047;-56
2022/12/19 05:22:52;;;;;;;14.10;5.83;;;;;;;1.73;67.27;103011.08;1945958;74;21090;-52
2022/12/19 05:25:20;;;;;;;11.50;4.28;;;;;;;1.77;67.16;103016.87;1980117;72;21095;-51
2022/12/19 05:27:49;;;;;;;20.35;6.08;;;;;;;1.79;67.12;103015.21;1974796;72;21059;-50
2022/12/19 05:30:22;;;;;;;16.37;6.95;;;;;;;1.73;67.08;103007.19;1960861;72;21152;-56
2022/12/19 05:32:51;;;;;;;17.20;7.93;;;;;;;1.66;67.22;103005.20;1966464;72;20976;-50
2022/12/19 05:35:20;;;;;;;15.32;5.40;;;;;;;1.62;67.35;103006.81;1965766;72;21103;-52
2022/12/19 05:37:49;;;;;;;15.55;6.22;;;;;;;1.66;67.29;103012.61;1965381;72;21057;-55
2022/12/19 05:40:17;;;;;;;15.08;6.55;;;;;;;1.70;67.19;103020.09;1952179;72;21006;-50
2022/12/19 05:42:46;;;;;;;12.33;6.65;;;;;;;1.66;67.21;103019.49;1961136;71;21076;-55
2022/12/19 05:45:15;;;;;;;17.62;8.08;;;;;;;1.62;67.34;103015.03;1977893;71;21057;-55
2022/12/19 05:47:45;;;;;;;18.02;7.05;;;;;;;1.64;67.25;103031.55;1973955;73;21017;-54
2022/12/19 05:50:15;;;;;;;21.68;7.40;;;;;;;1.62;67.20;103041.00;1970029;72;21030;-55
2022/12/19 05:52:46;;;;;;;12.53;5.17;;;;;;;1.58;67.27;103046.92;1972961;72;21635;-55
2022/12/19 05:55:14;;;;;;;16.52;7.20;;;;;;;1.54;67.34;103045.93;1968509;73;21034;-54
2022/12/19 05:57:43;;;;;;;11.65;5.10;;;;;;;1.54;67.26;103044.63;1963845;71;21029;-54
2022/12/19 06:00:14;;;;;;;17.85;6.72;;;;;;;1.57;67.25;103051.24;1962352;73;21037;-48
2022/12/19 06:02:46;;;;;;;13.85;7.55;;;;;;;1.59;67.16;103056.50;1939237;74;21005;-52
2022/12/19 06:05:16;;;;;;;21.62;7.95;;;;;;;1.61;67.10;103055.71;1939608;73;21111;-46
2022/12/19 06:07:45;;;;;;;14.13;7.42;;;;;;;1.62;67.03;103048.37;1939393;74;21111;-51
2022/12/19 06:10:14;;;;;;;19.87;7.90;;;;;;;1.64;66.99;103052.33;1939465;74;21068;-57
2022/12/19 06:12:42;;;;;;;21.20;7.58;;;;;;;1.62;67.05;103061.78;1939385;74;21019;-49
2022/12/19 06:15:12;;;;;;;14.85;7.53;;;;;;;1.58;67.01;103052.12;1939400;74;21025;-56
2022/12/19 06:17:41;;;;;;;11.38;5.55;;;;;;;1.56;67.16;103057.67;1965298;73;21526;-54
2022/12/19 06:20:10;;;;;;;8.88;4.90;;;;;;;1.53;67.23;103060.64;1973720;72;21073;-54
2022/12/19 06:22:39;;;;;;;14.93;5.95;;;;;;;1.54;67.19;103059.79;1971461;73;21041;-54
2022/12/19 06:25:08;;;;;;;16.48;7.40;;;;;;;1.55;67.05;103064.59;1973870;73;21060;-55
2022/12/19 06:27:37;;;;;;;13.78;6.15;;;;;;;1.52;67.06;103073.56;1957597;71;21041;-56
2022/12/19 06:30:07;;;;;;;10.03;4.55;;;;;;;1.47;67.18;103080.30;1963197;73;21122;-56
2022/12/19 06:32:35;;;;;;;8.83;3.62;;;;;;;1.46;67.26;103079.42;1973940;73;20997;-56
2022/12/19 06:35:04;;;;;;;6.70;3.90;;;;;;;1.45;67.20;103080.66;1973804;73;21021;-56
2022/12/19 06:43:51;;;;;;;7.25;4.05;;;;;;;1.30;66.96;103081.86;1980809;72;21017;-52
2022/12/19 06:46:20;;;;;;;10.95;3.87;;;;;;;1.26;66.94;103082.58;1980710;72;21158;-56
2022/12/19 06:48:49;;;;;;;14.63;6.83;;;;;;;1.25;66.73;103094.20;1980568;72;21034;-56
2022/12/19 06:51:18;;;;;;;6.45;3.85;;;;;;;1.24;66.70;103102.41;1977983;72;21047;-57
2022/12/19 06:53:47;;;;;;;13.03;5.05;;;;;;;1.23;66.59;103104.94;1980459;72;21139;-54
2022/12/19 06:56:17;;;;;;;6.55;3.27;;;;;;;1.17;66.58;103099.53;1969470;72;21173;-56
2022/12/19 06:58:45;;;;;;;14.38;5.55;;;;;;;1.15;66.71;103099.05;1969290;71;21614;-59
2022/12/19 07:01:20;;;;;;;10.53;4.70;;;;;;;1.17;66.67;103109.91;1954667;72;21037;-56
2022/12/19 07:03:50;;;;;;;7.17;3.05;;;;;;;1.19;66.55;103110.84;1908682;73;21583;-56
2022/12/19 07:06:18;;;;;;;6.70;4.28;;;;;;;1.18;66.47;103121.66;1899593;74;21068;-56
2022/12/19 07:08:47;;;;;;;6.75;4.05;;;;;;;1.17;66.36;103120.29;1938347;73;21501;-53
2022/12/19 07:11:16;;;;;;;12.50;5.12;;;;;;;1.13;66.33;103113.67;1937923;73;21031;-55
2022/12/19 07:13:45;;;;;;;17.20;6.30;;;;;;;1.11;66.41;103115.33;1920612;74;21180;-56
2022/12/19 07:16:14;;;;;;;9.53;4.72;;;;;;;1.11;66.49;103104.95;1925268;74;21113;-52
2022/12/19 07:18:43;;;;;;;10.03;4.15;;;;;;;1.13;66.48;103117.56;1904243;73;21112;-54
2022/12/19 07:21:12;;;;;;;8.95;4.33;;;;;;;1.12;66.54;103112.31;1907971;73;21609;-52
2022/12/19 07:23:41;;;;;;;5.50;3.15;;;;;;;1.17;66.35;103111.20;1900317;74;21095;-54
2022/12/19 07:26:10;;;;;;;10.75;5.17;;;;;;;1.15;66.22;103109.42;1903708;73;21154;-53
2022/12/19 07:28:39;;;;;;;8.48;4.53;;;;;;;1.12;66.17;103111.89;1899806;74;21064;-55
2022/12/19 07:31:08;;;;;;;6.90;2.92;;;;;;;1.13;66.17;103111.08;1938340;73;21126;-56
2022/12/19 07:33:36;;;;;;;6.30;2.83;;;;;;;1.11;66.19;103107.55;1907966;73;21075;-59
2022/12/19 07:36:05;;;;;;;8.35;4.03;;;;;;;1.08;66.11;103117.80;1933276;73;21039;-57
2022/12/19 07:38:37;;;;;;;8.45;4.17;;;;;;;1.06;66.25;103126.36;1929032;73;21156;-59
2022/12/19 07:41:06;;;;;;;8.95;3.60;;;;;;;1.03;66.13;103140.08;1918822;74;21024;-57
2022/12/19 07:43:35;;;;;;;16.70;4.50;;;;;;;1.02;66.09;103141.34;1901780;75;21126;-58
2022/12/19 07:46:03;;;;;;;10.58;4.20;;;;;;;0.96;66.20;103149.78;1885827;75;21078;-57
2022/12/19 07:48:32;;;;;;;9.40;4.45;;;;;;;0.84;66.12;103133.30;1915485;74;21570;-49
2022/12/19 07:51:01;;;;;;;6.65;3.52;;;;;;;0.79;66.57;103132.64;1916452;74;21092;-56
2022/12/19 07:53:30;;;;;;;10.32;3.80;;;;;;;0.81;66.66;103133.59;1916885;74;21133;-57
2022/12/19 07:55:59;;;;;;;7.10;2.27;;;;;;;0.82;66.62;103134.08;1887054;75;21098;-55
2022/12/19 07:58:27;;;;;;;11.08;4.15;;;;;;;0.84;66.66;103141.50;1881262;75;21002;-51
2022/12/19 08:00:57;;;;;;;9.13;3.87;;;;;;;0.82;66.14;103154.83;1914675;74;21098;-57
2022/12/19 08:03:27;;;;;;;3.60;1.87;;;;;;;0.81;66.16;103147.84;1914815;74;21105;-55
2022/12/19 08:06:01;;;;;;;7.45;4.15;;;;;;;0.83;65.69;103144.91;1903157;75;21534;-57
2022/12/19 08:08:31;;;;;;;12.98;4.08;;;;;;;0.83;65.95;103136.73;1887137;75;21484;-58
2022/12/19 08:11:08;;;;;;;9.70;4.20;;;;;;;0.84;65.71;103132.42;1917331;74;21200;-58
2022/12/19 08:13:36;;;;;;;10.70;4.10;;;;;;;0.81;65.75;103133.16;1915424;73;22253;-57
2022/12/19 08:16:06;;;;;;;9.68;3.02;;;;;;;0.81;65.63;103121.91;1893139;75;21061;-57
2022/12/19 08:18:38;;;;;;;11.20;4.28;;;;;;;0.84;65.70;103131.13;1880158;75;21065;-58
2022/12/19 08:21:08;;;;;;;6.95;2.72;;;;;;;0.92;65.53;103133.59;1885346;75;21195;-58
2022/12/19 08:23:40;;;;;;;12.55;4.60;;;;;;;0.95;65.54;103131.13;1894358;75;21035;-57
2022/12/19 08:26:12;;;;;;;7.50;3.50;;;;;;;0.92;65.40;103129.70;1902688;75;21163;-53
2022/12/19 08:28:42;;;;;;;7.92;3.52;;;;;;;0.97;65.26;103124.28;1918127;74;21493;-57
2022/12/19 08:31:16;;;;;;;8.60;3.52;;;;;;;1.07;64.87;103122.53;1897259;75;21235;-55
2022/12/19 08:33:46;;;;;;;10.63;4.20;;;;;;;1.05;64.71;103120.69;1889158;75;21115;-57
2022/12/19 08:36:21;;;;;;;7.72;2.90;;;;;;;1.05;64.36;103125.48;1888800;75;21147;-58
2022/12/19 08:38:47;;;;;;;3.08;1.77;;;;;;;1.07;64.27;103129.02;1899681;74;21128;-55
2022/12/19 08:41:17;;;;;;;5.67;3.42;;;;;;;1.15;64.54;103128.89;1902970;75;21166;-57
2022/12/19 08:43:50;;;;;;;7.08;3.55;;;;;;;1.23;64.47;103139.55;1882248;75;21067;-60
2022/12/19 08:46:20;;;;;;;9.38;3.83;;;;;;;1.28;64.41;103139.75;1922402;73;21122;-59
2022/12/19 08:48:50;;;;;;;10.45;4.30;;;;;;;1.30;64.40;103136.79;1889902;74;21066;-62
2022/12/19 08:51:20;;;;;;;7.53;3.47;;;;;;;1.28;64.30;103140.62;1903061;75;21154;-59
2022/12/19 08:53:49;;;;;;;7.12;2.72;;;;;;;1.27;64.37;103128.88;1882179;75;21074;-58
2022/12/19 08:56:20;;;;;;;10.58;3.72;;;;;;;1.28;64.35;103128.06;1915644;74;21097;-59
2022/12/19 08:58:58;;;;;;;7.37;2.75;;;;;;;1.27;64.28;103123.30;1882815;75;21065;-61
2022/12/19 09:01:27;;;;;;;8.68;3.10;;;;;;;1.30;64.10;103123.39;1885015;75;21167;-61
2022/12/19 09:03:59;;;;;;;8.28;2.87;;;;;;;1.33;63.96;103116.15;1888414;75;21056;-57
2022/12/19 09:06:42;;;;;;;8.33;3.70;;;;;;;1.34;63.91;103116.18;1904816;75;21219;-62
2022/12/19 09:09:05;;;;;;;7.80;3.08;;;;;;;1.34;63.86;103114.00;1911194;74;21004;-61
2022/12/19 09:11:43;;;;;;;7.47;3.40;;;;;;;1.34;64.08;103105.80;1902831;74;21144;-62
2022/12/19 09:14:12;;;;;;;9.28;4.53;;;;;;;1.41;63.98;103105.63;1902621;75;21233;-58
2022/12/19 09:16:42;;;;;;;8.23;3.52;;;;;;;1.49;64.10;103106.77;1916799;74;21093;-59
2022/12/19 09:19:15;;;;;;;9.08;3.75;;;;;;;1.54;64.02;103114.74;1902892;75;21175;-53
2022/12/19 09:21:44;;;;;;;16.45;3.25;;;;;;;1.51;63.58;103101.64;1886993;75;21064;-59
2022/12/19 09:24:13;;;;;;;5.62;3.00;;;;;;;1.58;63.60;103102.76;1920795;74;21224;-60
2022/12/19 09:26:43;;;;;;;8.00;3.02;;;;;;;1.72;63.56;103102.84;1912571;74;21620;-60
2022/12/19 09:29:17;;;;;;;5.75;2.60;;;;;;;1.94;63.03;103103.18;1908332;75;21243;-57
2022/12/19 09:31:42;;;;;;;11.83;4.03;;;;;;;2.10;62.87;103103.27;1901927;75;21104;-56
2022/12/19 09:34:11;;;;;;;6.25;2.65;;;;;;;2.21;62.20;103105.81;1884545;75;21081;-57
2022/12/19 09:36:42;;;;;;;6.70;3.85;;;;;;;2.25;61.98;103105.10;1890489;74;21086;-58
2022/12/19 09:39:12;;;;;;;7.83;3.95;;;;;;;2.25;61.72;103101.20;1909173;74;21131;-58
2022/12/19 09:41:58;;;;;;;8.20;4.12;;;;;;;2.20;61.45;103092.36;1887480;76;21072;-58
2022/12/19 09:44:53;;;;;;;10.63;3.50;;;;;;;2.19;61.06;103094.48;1921856;73;21121;-59
2022/12/19 09:47:24;;;;;;;6.62;3.70;;;;;;;2.18;61.14;103112.23;1896868;75;21042;-59
2022/12/19 09:49:54;;;;;;;8.08;3.50;;;;;;;2.24;61.46;103105.05;1935649;72;21013;-59
2022/12/19 09:52:43;;;;;;;9.15;3.85;;;;;;;2.28;61.41;103105.19;1915167;73;21036;-59
2022/12/19 09:55:24;;;;;;;6.95;3.25;;;;;;;2.41;61.20;103091.30;1888685;74;21556;-57
2022/12/19 09:57:56;;;;;;;10.75;3.83;;;;;;;2.53;60.80;103086.50;1856744;76;21155;-58
2022/12/19 10:00:27;;;;;;;9.55;4.12;;;;;;;2.45;60.37;103077.55;1889441;74;21153;-58
2022/12/19 10:03:15;;;;;;;8.10;3.12;;;;;;;2.36;60.40;103082.45;1892260;74;21116;-60
2022/12/19 10:05:50;;;;;;;6.58;3.25;;;;;;;2.31;60.37;103092.72;1889234;74;21579;-57
2022/12/19 10:08:34;;;;;;;7.22;3.98;;;;;;;2.27;60.53;103085.23;1887876;74;21042;-57
2022/12/19 10:11:18;;;;;;;5.15;2.90;;;;;;;2.28;60.58;103090.88;1889542;76;21104;-61
2022/12/19 10:14:01;;;;;;;7.58;3.45;;;;;;;2.35;60.76;103078.11;1888924;74;21927;-61
2022/12/19 10:17:05;;;;;;;8.15;3.05;;;;;;;2.46;60.09;103068.93;1889677;74;21232;-60
2022/12/19 10:19:45;;;;;;;11.68;4.78;;;;;;;2.50;59.90;103060.38;1917197;75;21442;-61
2022/12/19 10:22:29;;;;;;;10.20;3.95;;;;;;;2.52;60.24;103063.91;1928729;73;21481;-61
2022/12/19 10:25:05;;;;;;;5.90;2.35;;;;;;;2.51;59.78;103073.87;1897307;73;21143;-62
2022/12/19 10:27:35;;;;;;;9.98;3.90;;;;;;;2.37;59.66;103061.70;1924496;73;21056;-61
2022/12/19 10:30:22;;;;;;;7.17;3.70;;;;;;;2.24;59.67;103078.63;1926606;73;21244;-59
2022/12/19 10:33:00;;;;;;;10.50;4.22;;;;;;;2.12;59.88;103076.91;1925279;73;21043;-60
2022/12/19 10:35:35;;;;;;;11.50;3.75;;;;;;;2.06;60.01;103076.72;1928385;73;21103;-58
2022/12/19 10:38:18;;;;;;;8.65;4.17;;;;;;;1.99;59.98;103070.84;1896356;73;21057;-58
2022/12/19 10:40:52;;;;;;;11.90;5.72;;;;;;;1.90;60.06;103074.00;1905571;73;21086;-59
2022/12/19 10:43:41;;;;;;;14.85;8.30;;;;;;;1.90;60.03;103078.80;1927077;74;21557;-59
2022/12/19 10:46:13;;;;;;;10.53;6.55;;;;;;;1.88;60.12;103072.67;1925406;73;21196;-59
2022/12/19 10:48:41;;;;;;;11.63;5.47;;;;;;;1.83;60.02;103078.13;1925148;73;21179;-58
2022/12/19 10:51:16;;;;;;;10.13;3.83;;;;;;;1.81;60.09;103078.88;1921260;73;21191;-60
2022/12/19 10:53:48;;;;;;;18.35;7.35;;;;;;;1.81;59.97;103089.27;1917944;73;21047;-59
2022/12/19 10:56:29;;;;;;;12.15;6.37;;;;;;;1.75;59.80;103092.54;1916595;73;21077;-59
2022/12/19 10:59:00;;;;;;;10.85;4.45;;;;;;;1.64;59.69;103094.78;1920279;74;21071;-59
2022/12/19 11:01:34;;;;;;;8.65;3.47;;;;;;;1.53;60.11;103086.60;1926411;73;21691;-59
2022/12/19 11:04:33;;;;;;;11.57;4.10;;;;;;;1.54;59.97;103090.95;1897547;73;21134;-58
2022/12/19 11:07:07;;;;;;;8.33;3.98;;;;;;;1.51;59.76;103085.67;1916675;75;21042;-60
2022/12/19 11:09:42;;;;;;;20.27;5.97;;;;;;;1.54;59.59;103093.55;1923654;74;21042;-57
2022/12/19 11:12:17;;;;;;;8.33;2.40;;;;;;;1.58;59.67;103091.07;1928211;74;21112;-58
2022/12/19 11:15:13;;;;;;;7.35;3.12;;;;;;;1.56;59.64;103091.01;1927529;74;21053;-58
2022/12/19 11:17:43;;;;;;;6.12;3.08;;;;;;;1.62;59.87;103089.05;1920278;73;21117;-58
2022/12/19 11:20:20;;;;;;;12.55;5.05;;;;;;;1.73;59.64;103079.91;1918283;73;21125;-61
2022/12/19 11:23:00;;;;;;;8.73;3.37;;;;;;;1.83;59.55;103084.62;1921441;73;21037;-60
2022/12/19 11:25:37;;;;;;;7.90;3.45;;;;;;;1.82;59.47;103075.47;1917717;73;21106;-59
2022/12/19 11:28:08;;;;;;;11.25;3.30;;;;;;;1.71;59.26;103063.40;1926594;73;21487;-57
2022/12/19 11:30:39;;;;;;;6.72;3.00;;;;;;;1.60;59.18;103058.25;1922851;73;21062;-60
2022/12/19 11:33:17;;;;;;;11.55;5.47;;;;;;;1.53;59.39;103071.41;1926593;73;21162;-57
2022/12/19 11:35:49;;;;;;;9.30;5.17;;;;;;;1.46;59.58;103083.31;1919280;73;21029;-58
2022/12/19 11:38:38;;;;;;;7.33;4.17;;;;;;;1.37;59.76;103084.28;1913396;73;21045;-57
2022/12/19 11:41:22;;;;;;;10.68;3.60;;;;;;;1.33;59.82;103082.41;1920608;73;21091;-58
2022/12/19 11:44:02;;;;;;;8.13;3.10;;;;;;;1.24;59.86;103091.16;1928367;74;21070;-60
2022/12/19 11:46:49;;;;;;;11.75;5.00;;;;;;;1.12;60.03;103096.32;1928433;73;21008;-48
2022/12/19 11:49:21;;;;;;;8.18;2.42;;;;;;;1.08;60.22;103116.50;1930072;73;21111;-59
2022/12/19 11:51:54;;;;;;;7.78;3.98;;;;;;;1.09;60.33;103120.88;1912374;73;21118;-58
2022/12/19 11:54:32;;;;;;;10.93;4.10;;;;;;;1.06;60.37;103123.34;1889615;76;21080;-56
2022/12/19 11:57:00;;;;;;;15.28;6.20;;;;;;;1.00;60.44;103117.93;1902245;75;21061;-58
2022/12/19 11:59:34;;;;;;;7.35;3.98;;;;;;;0.98;60.67;103123.48;1880512;75;21497;-58
2022/12/19 12:02:28;;;;;;;10.00;3.85;;;;;;;0.92;60.55;103131.00;1857651;76;21560;-59
2022/12/19 12:05:09;;;;;;;12.75;4.30;;;;;;;0.88;60.64;103136.89;1888990;74;21247;-59